createdAt,value
2022-09-28T00:00:04.586Z,94159.00
2022-09-28T00:00:14.713Z,94159.00
2022-09-28T00:00:24.587Z,94158.00
2022-09-28T00:00:34.525Z,94158.00
2022-09-28T00:00:44.538Z,94156.00
2022-09-28T00:00:54.564Z,94157.00
2022-09-28T00:01:04.595Z,94158.00
2022-09-28T00:01:14.537Z,94158.00
2022-09-28T00:01:24.765Z,94158.00
2022-09-28T00:01:34.589Z,94160.00
2022-09-28T00:01:44.880Z,94160.00
2022-09-28T00:01:54.850Z,94159.00
2022-09-28T00:02:04.821Z,94157.00
2022-09-28T00:02:14.829Z,94158.00
2022-09-28T00:02:24.605Z,94156.00
2022-09-28T00:02:34.763Z,94156.00
2022-09-28T00:02:44.662Z,94154.00
2022-09-28T00:02:54.726Z,94154.00
2022-09-28T00:03:04.721Z,94156.00
2022-09-28T00:03:14.596Z,94158.00
2022-09-28T00:03:24.679Z,94156.00
2022-09-28T00:03:34.569Z,94157.00
2022-09-28T00:03:44.576Z,94154.00
2022-09-28T00:03:54.423Z,94155.00
2022-09-28T00:04:04.542Z,94153.00
2022-09-28T00:04:14.409Z,94153.00
2022-09-28T00:04:24.658Z,94151.00
2022-09-28T00:04:34.454Z,94153.00
2022-09-28T00:04:44.484Z,94150.00
2022-09-28T00:04:54.648Z,94149.00
2022-09-28T00:05:04.666Z,94155.00
2022-09-28T00:05:18.082Z,94153.00
2022-09-28T00:05:24.712Z,94150.00
2022-09-28T00:05:34.633Z,94155.00
2022-09-28T00:05:44.598Z,94149.00
2022-09-28T00:05:54.476Z,94152.00
2022-09-28T00:06:04.436Z,94151.00
2022-09-28T00:06:14.493Z,94153.00
2022-09-28T00:06:24.695Z,94155.00
2022-09-28T00:06:34.485Z,94152.00
2022-09-28T00:06:44.488Z,94150.00
2022-09-28T00:06:54.455Z,94156.00
2022-09-28T00:07:04.527Z,94153.00
2022-09-28T00:07:14.575Z,94155.00
2022-09-28T00:07:24.529Z,94153.00
2022-09-28T00:07:34.543Z,94154.00
2022-09-28T00:07:44.700Z,94149.00
2022-09-28T00:07:54.516Z,94152.00
2022-09-28T00:08:04.604Z,94150.00
2022-09-28T00:08:14.579Z,94148.00
2022-09-28T00:08:24.654Z,94148.00
2022-09-28T00:08:34.686Z,94149.00
2022-09-28T00:08:44.544Z,94145.00
2022-09-28T00:08:54.510Z,94143.00
2022-09-28T00:09:04.561Z,94145.00
2022-09-28T00:09:14.462Z,94147.00
2022-09-28T00:09:24.659Z,94146.00
2022-09-28T00:09:34.617Z,94148.00
2022-09-28T00:09:44.589Z,94143.00
2022-09-28T00:09:54.735Z,94145.00
2022-09-28T00:10:04.451Z,94146.00
2022-09-28T00:10:14.422Z,94143.00
2022-09-28T00:10:24.571Z,94144.00
2022-09-28T00:10:34.627Z,94145.00
2022-09-28T00:10:44.414Z,94145.00
2022-09-28T00:10:54.573Z,94143.00
2022-09-28T00:11:04.509Z,94141.00
2022-09-28T00:11:14.623Z,94144.00
2022-09-28T00:11:24.480Z,94140.00
2022-09-28T00:11:34.581Z,94139.00
2022-09-28T00:11:44.463Z,94141.00
2022-09-28T00:11:54.682Z,94142.00
2022-09-28T00:12:04.618Z,94141.00
2022-09-28T00:12:14.549Z,94141.00
2022-09-28T00:12:24.671Z,94140.00
2022-09-28T00:12:34.501Z,94142.00
2022-09-28T00:12:44.492Z,94142.00
2022-09-28T00:12:54.494Z,94140.00
2022-09-28T00:13:04.564Z,94142.00
2022-09-28T00:13:14.577Z,94140.00
2022-09-28T00:13:24.598Z,94142.00
2022-09-28T00:13:34.465Z,94141.00
2022-09-28T00:13:44.710Z,94141.00
2022-09-28T00:13:54.590Z,94144.00
2022-09-28T00:14:04.607Z,94138.00
2022-09-28T00:14:14.621Z,94140.00
2022-09-28T00:14:24.514Z,94136.00
2022-09-28T00:14:34.685Z,94141.00
2022-09-28T00:14:44.414Z,94141.00
2022-09-28T00:14:54.492Z,94139.00
2022-09-28T00:15:04.720Z,94138.00
2022-09-28T00:15:14.452Z,94135.00
2022-09-28T00:15:24.527Z,94134.00
2022-09-28T00:15:34.633Z,94137.00
2022-09-28T00:15:44.620Z,94137.00
2022-09-28T00:15:55.462Z,94142.00
2022-09-28T00:16:04.717Z,94136.00
2022-09-28T00:16:14.600Z,94139.00
2022-09-28T00:16:24.719Z,94135.00
2022-09-28T00:16:34.629Z,94136.00
2022-09-28T00:16:44.539Z,94137.00
2022-09-28T00:16:54.504Z,94136.00
2022-09-28T00:17:04.707Z,94137.00
2022-09-28T00:17:14.497Z,94136.00
2022-09-28T00:17:24.628Z,94138.00
2022-09-28T00:17:34.573Z,94135.00
2022-09-28T00:17:44.623Z,94134.00
2022-09-28T00:17:54.698Z,94136.00
2022-09-28T00:18:04.433Z,94137.00
2022-09-28T00:18:14.475Z,94134.00
2022-09-28T00:18:24.674Z,94134.00
2022-09-28T00:18:34.460Z,94135.00
2022-09-28T00:18:44.440Z,94129.00
2022-09-28T00:18:54.520Z,94130.00
2022-09-28T00:19:04.437Z,94130.00
2022-09-28T00:19:14.521Z,94131.00
2022-09-28T00:19:24.431Z,94128.00
2022-09-28T00:19:34.528Z,94128.00
2022-09-28T00:19:44.438Z,94130.00
2022-09-28T00:19:54.634Z,94127.00
2022-09-28T00:20:04.634Z,94127.00
2022-09-28T00:20:14.586Z,94128.00
2022-09-28T00:20:24.479Z,94127.00
2022-09-28T00:20:34.568Z,94127.00
2022-09-28T00:20:44.407Z,94124.00
2022-09-28T00:20:54.486Z,94128.00
2022-09-28T00:21:04.579Z,94125.00
2022-09-28T00:21:14.666Z,94128.00
2022-09-28T00:21:24.628Z,94127.00
2022-09-28T00:21:34.570Z,94128.00
2022-09-28T00:21:44.609Z,94125.00
2022-09-28T00:21:54.614Z,94124.00
2022-09-28T00:22:04.678Z,94125.00
2022-09-28T00:22:14.693Z,94124.00
2022-09-28T00:22:24.620Z,94125.00
2022-09-28T00:22:34.706Z,94126.00
2022-09-28T00:22:44.700Z,94124.00
2022-09-28T00:22:54.436Z,94128.00
2022-09-28T00:23:04.553Z,94127.00
2022-09-28T00:23:14.425Z,94123.00
2022-09-28T00:23:24.621Z,94122.00
2022-09-28T00:23:34.410Z,94122.00
2022-09-28T00:23:44.413Z,94122.00
2022-09-28T00:23:54.588Z,94120.00
2022-09-28T00:24:04.551Z,94119.00
2022-09-28T00:24:14.682Z,94122.00
2022-09-28T00:24:27.701Z,94117.00
2022-09-28T00:24:34.583Z,94119.00
2022-09-28T00:24:44.544Z,94119.00
2022-09-28T00:24:54.461Z,94118.00
2022-09-28T00:25:04.561Z,94116.00
2022-09-28T00:25:14.573Z,94118.00
2022-09-28T00:25:24.683Z,94118.00
2022-09-28T00:25:34.592Z,94119.00
2022-09-28T00:25:44.452Z,94114.00
2022-09-28T00:25:54.539Z,94113.00
2022-09-28T00:26:04.418Z,94116.00
2022-09-28T00:26:14.646Z,94114.00
2022-09-28T00:26:24.656Z,94112.00
2022-09-28T00:26:34.629Z,94110.00
2022-09-28T00:26:44.635Z,94108.00
2022-09-28T00:26:54.425Z,94113.00
2022-09-28T00:27:04.448Z,94111.00
2022-09-28T00:27:14.698Z,94113.00
2022-09-28T00:27:24.473Z,94111.00
2022-09-28T00:27:34.565Z,94121.00
2022-09-28T00:27:44.570Z,94112.00
2022-09-28T00:27:54.423Z,94112.00
2022-09-28T00:28:04.471Z,94113.00
2022-09-28T00:28:14.535Z,94114.00
2022-09-28T00:28:24.649Z,94113.00
2022-09-28T00:28:34.430Z,94113.00
2022-09-28T00:28:44.510Z,94111.00
2022-09-28T00:28:54.480Z,94110.00
2022-09-28T00:29:04.676Z,94109.00
2022-09-28T00:29:14.552Z,94109.00
2022-09-28T00:29:24.657Z,94109.00
2022-09-28T00:29:34.517Z,94110.00
2022-09-28T00:29:44.462Z,94109.00
2022-09-28T00:29:54.609Z,94109.00
2022-09-28T00:30:04.521Z,94109.00
2022-09-28T00:30:14.527Z,94109.00
2022-09-28T00:30:24.448Z,94109.00
2022-09-28T00:30:34.530Z,94105.00
2022-09-28T00:30:44.477Z,94106.00
2022-09-28T00:30:54.597Z,94107.00
2022-09-28T00:31:04.610Z,94106.00
2022-09-28T00:31:14.727Z,94107.00
2022-09-28T00:31:24.673Z,94106.00
2022-09-28T00:31:34.626Z,94103.00
2022-09-28T00:31:44.733Z,94106.00
2022-09-28T00:31:54.633Z,94110.00
2022-09-28T00:32:04.505Z,94108.00
2022-09-28T00:32:14.748Z,94107.00
2022-09-28T00:32:24.447Z,94104.00
2022-09-28T00:32:34.547Z,94103.00
2022-09-28T00:32:44.696Z,94101.00
2022-09-28T00:32:54.476Z,94101.00
2022-09-28T00:33:04.653Z,94106.00
2022-09-28T00:33:14.442Z,94106.00
2022-09-28T00:33:24.553Z,94104.00
2022-09-28T00:33:37.532Z,94104.00
2022-09-28T00:33:44.573Z,94100.00
2022-09-28T00:33:55.395Z,94103.00
2022-09-28T00:34:04.648Z,94101.00
2022-09-28T00:34:14.484Z,94100.00
2022-09-28T00:34:24.633Z,94101.00
2022-09-28T00:34:34.462Z,94098.00
2022-09-28T00:34:44.597Z,94096.00
2022-09-28T00:34:54.695Z,94099.00
2022-09-28T00:35:04.520Z,94097.00
2022-09-28T00:35:14.415Z,94099.00
2022-09-28T00:35:24.615Z,94097.00
2022-09-28T00:35:34.448Z,94099.00
2022-09-28T00:35:44.455Z,94093.00
2022-09-28T00:35:54.686Z,94094.00
2022-09-28T00:36:04.669Z,94094.00
2022-09-28T00:36:14.508Z,94093.00
2022-09-28T00:36:24.590Z,94095.00
2022-09-28T00:36:34.493Z,94094.00
2022-09-28T00:36:44.567Z,94091.00
2022-09-28T00:36:54.666Z,94094.00
2022-09-28T00:37:04.506Z,94091.00
2022-09-28T00:37:14.425Z,94089.00
2022-09-28T00:37:24.600Z,94089.00
2022-09-28T00:37:34.445Z,94085.00
2022-09-28T00:37:44.496Z,94087.00
2022-09-28T00:37:54.471Z,94088.00
2022-09-28T00:38:04.424Z,94086.00
2022-09-28T00:38:14.659Z,94083.00
2022-09-28T00:38:25.355Z,94086.00
2022-09-28T00:38:34.478Z,94089.00
2022-09-28T00:38:44.411Z,94085.00
2022-09-28T00:38:54.667Z,94083.00
2022-09-28T00:39:04.646Z,94085.00
2022-09-28T00:39:14.646Z,94084.00
2022-09-28T00:39:24.427Z,94083.00
2022-09-28T00:39:34.582Z,94084.00
2022-09-28T00:39:44.684Z,94090.00
2022-09-28T00:39:54.677Z,94082.00
2022-09-28T00:40:04.516Z,94087.00
2022-09-28T00:40:14.731Z,94087.00
2022-09-28T00:40:24.569Z,94086.00
2022-09-28T00:40:34.766Z,94083.00
2022-09-28T00:40:44.730Z,94086.00
2022-09-28T00:40:54.667Z,94084.00
2022-09-28T00:41:04.535Z,94083.00
2022-09-28T00:41:14.508Z,94086.00
2022-09-28T00:41:24.489Z,94084.00
2022-09-28T00:41:34.539Z,94081.00
2022-09-28T00:41:44.426Z,94082.00
2022-09-28T00:41:54.563Z,94082.00
2022-09-28T00:42:04.566Z,94077.00
2022-09-28T00:42:14.636Z,94081.00
2022-09-28T00:42:24.576Z,94080.00
2022-09-28T00:42:34.702Z,94082.00
2022-09-28T00:42:44.674Z,94085.00
2022-09-28T00:42:54.742Z,94081.00
2022-09-28T00:43:04.657Z,94081.00
2022-09-28T00:43:14.684Z,94080.00
2022-09-28T00:43:24.441Z,94075.00
2022-09-28T00:43:34.660Z,94077.00
2022-09-28T00:43:44.499Z,94081.00
2022-09-28T00:43:54.658Z,94076.00
2022-09-28T00:44:04.407Z,94079.00
2022-09-28T00:44:14.445Z,94080.00
2022-09-28T00:44:24.587Z,94080.00
2022-09-28T00:44:34.566Z,94079.00
2022-09-28T00:44:44.460Z,94080.00
2022-09-28T00:44:54.654Z,94079.00
2022-09-28T00:45:04.505Z,94078.00
2022-09-28T00:45:14.468Z,94076.00
2022-09-28T00:45:24.646Z,94075.00
2022-09-28T00:45:34.554Z,94075.00
2022-09-28T00:45:44.537Z,94077.00
2022-09-28T00:45:54.607Z,94079.00
2022-09-28T00:46:04.627Z,94074.00
2022-09-28T00:46:14.643Z,94075.00
2022-09-28T00:46:24.492Z,94079.00
2022-09-28T00:46:34.602Z,94078.00
2022-09-28T00:46:44.436Z,94078.00
2022-09-28T00:46:54.455Z,94076.00
2022-09-28T00:47:04.468Z,94074.00
2022-09-28T00:47:14.595Z,94074.00
2022-09-28T00:47:24.650Z,94075.00
2022-09-28T00:47:34.654Z,94075.00
2022-09-28T00:47:44.455Z,94076.00
2022-09-28T00:47:54.652Z,94078.00
2022-09-28T00:48:04.732Z,94073.00
2022-09-28T00:48:14.470Z,94073.00
2022-09-28T00:48:24.638Z,94074.00
2022-09-28T00:48:34.570Z,94073.00
2022-09-28T00:48:44.617Z,94074.00
2022-09-28T00:48:54.565Z,94072.00
2022-09-28T00:49:04.440Z,94070.00
2022-09-28T00:49:14.817Z,94073.00
2022-09-28T00:49:24.484Z,94073.00
2022-09-28T00:49:34.731Z,94075.00
2022-09-28T00:49:44.684Z,94070.00
2022-09-28T00:49:54.636Z,94073.00
2022-09-28T00:50:04.502Z,94075.00
2022-09-28T00:50:14.429Z,94075.00
2022-09-28T00:50:24.441Z,94077.00
2022-09-28T00:50:34.410Z,94076.00
2022-09-28T00:50:44.570Z,94073.00
2022-09-28T00:50:54.633Z,94075.00
2022-09-28T00:51:43.510Z,94074.00
2022-09-28T00:51:43.868Z,94072.00
2022-09-28T00:51:44.225Z,94072.00
2022-09-28T00:51:44.593Z,94072.00
2022-09-28T00:51:45.024Z,94070.00
2022-09-28T00:51:54.564Z,94071.00
2022-09-28T00:52:04.518Z,94072.00
2022-09-28T00:52:14.519Z,94071.00
2022-09-28T00:52:24.431Z,94071.00
2022-09-28T00:52:34.423Z,94072.00
2022-09-28T00:52:44.503Z,94071.00
2022-09-28T00:52:54.479Z,94071.00
2022-09-28T00:53:04.567Z,94073.00
2022-09-28T00:53:14.521Z,94069.00
2022-09-28T00:53:24.481Z,94071.00
2022-09-28T00:53:34.682Z,94070.00
2022-09-28T00:53:44.608Z,94073.00
2022-09-28T00:53:54.591Z,94068.00
2022-09-28T00:54:04.466Z,94067.00
2022-09-28T00:54:14.464Z,94068.00
2022-09-28T00:54:24.688Z,94067.00
2022-09-28T00:54:34.667Z,94068.00
2022-09-28T00:54:44.617Z,94068.00
2022-09-28T00:54:54.706Z,94068.00
2022-09-28T00:55:04.659Z,94067.00
2022-09-28T00:55:14.484Z,94071.00
2022-09-28T00:55:24.463Z,94068.00
2022-09-28T00:55:34.496Z,94073.00
2022-09-28T00:55:44.572Z,94072.00
2022-09-28T00:55:54.512Z,94070.00
2022-09-28T00:56:04.545Z,94070.00
2022-09-28T00:56:14.692Z,94068.00
2022-09-28T00:56:24.667Z,94069.00
2022-09-28T00:56:34.515Z,94065.00
2022-09-28T00:56:44.704Z,94065.00
2022-09-28T00:56:54.577Z,94066.00
2022-09-28T00:57:04.602Z,94065.00
2022-09-28T00:57:14.506Z,94063.00
2022-09-28T00:57:24.495Z,94063.00
2022-09-28T00:57:34.468Z,94063.00
2022-09-28T00:57:44.444Z,94060.00
2022-09-28T00:57:54.446Z,94067.00
2022-09-28T00:58:04.594Z,94067.00
2022-09-28T00:58:14.641Z,94065.00
2022-09-28T00:58:24.539Z,94062.00
2022-09-28T00:58:34.647Z,94065.00
2022-09-28T00:58:44.620Z,94063.00
2022-09-28T00:58:54.598Z,94061.00
2022-09-28T00:59:04.662Z,94059.00
2022-09-28T00:59:14.637Z,94060.00
2022-09-28T00:59:24.436Z,94058.00
2022-09-28T00:59:34.491Z,94061.00
2022-09-28T00:59:44.494Z,94056.00
2022-09-28T00:59:54.559Z,94058.00
2022-09-28T01:00:04.607Z,94059.00
2022-09-28T01:00:14.436Z,94061.00
2022-09-28T01:00:24.483Z,94056.00
2022-09-28T01:00:34.553Z,94056.00
2022-09-28T01:00:44.713Z,94058.00
2022-09-28T01:00:54.597Z,94059.00
2022-09-28T01:01:04.639Z,94057.00
2022-09-28T01:01:14.695Z,94055.00
2022-09-28T01:01:24.584Z,94058.00
2022-09-28T01:01:34.541Z,94055.00
2022-09-28T01:01:44.571Z,94057.00
2022-09-28T01:01:54.708Z,94055.00
2022-09-28T01:02:04.598Z,94055.00
2022-09-28T01:02:14.455Z,94050.00
2022-09-28T01:02:24.719Z,94055.00
2022-09-28T01:02:34.506Z,94054.00
2022-09-28T01:02:44.592Z,94050.00
2022-09-28T01:02:54.624Z,94054.00
2022-09-28T01:03:04.554Z,94055.00
2022-09-28T01:03:14.549Z,94053.00
2022-09-28T01:03:24.627Z,94053.00
2022-09-28T01:03:34.613Z,94054.00
2022-09-28T01:03:44.480Z,94051.00
2022-09-28T01:03:54.502Z,94050.00
2022-09-28T01:04:04.533Z,94051.00
2022-09-28T01:04:14.554Z,94052.00
2022-09-28T01:04:29.186Z,94049.00
2022-09-28T01:04:34.532Z,94050.00
2022-09-28T01:04:44.529Z,94050.00
2022-09-28T01:04:54.675Z,94044.00
2022-09-28T01:05:04.680Z,94049.00
2022-09-28T01:05:14.641Z,94051.00
2022-09-28T01:05:24.436Z,94050.00
2022-09-28T01:05:34.600Z,94054.00
2022-09-28T01:05:44.607Z,94047.00
2022-09-28T01:05:54.672Z,94049.00
2022-09-28T01:06:04.487Z,94047.00
2022-09-28T01:06:14.611Z,94051.00
2022-09-28T01:06:24.469Z,94050.00
2022-09-28T01:06:34.439Z,94049.00
2022-09-28T01:06:44.703Z,94050.00
2022-09-28T01:06:54.634Z,94047.00
2022-09-28T01:07:04.564Z,94046.00
2022-09-28T01:07:14.588Z,94048.00
2022-09-28T01:07:24.711Z,94048.00
2022-09-28T01:07:34.552Z,94055.00
2022-09-28T01:07:44.581Z,94052.00
2022-09-28T01:07:54.430Z,94051.00
2022-09-28T01:08:04.548Z,94056.00
2022-09-28T01:08:14.491Z,94048.00
2022-09-28T01:08:24.585Z,94050.00
2022-09-28T01:08:34.489Z,94050.00
2022-09-28T01:08:44.658Z,94053.00
2022-09-28T01:08:54.479Z,94045.00
2022-09-28T01:09:04.471Z,94048.00
2022-09-28T01:09:14.588Z,94045.00
2022-09-28T01:09:24.606Z,94045.00
2022-09-28T01:09:34.686Z,94048.00
2022-09-28T01:09:44.467Z,94044.00
2022-09-28T01:09:54.489Z,94042.00
2022-09-28T01:10:04.594Z,94045.00
2022-09-28T01:10:14.469Z,94039.00
2022-09-28T01:10:24.596Z,94037.00
2022-09-28T01:10:34.590Z,94041.00
2022-09-28T01:10:44.643Z,94041.00
2022-09-28T01:10:54.671Z,94042.00
2022-09-28T01:11:04.596Z,94043.00
2022-09-28T01:11:14.475Z,94034.00
2022-09-28T01:11:24.564Z,94042.00
2022-09-28T01:11:34.446Z,94040.00
2022-09-28T01:11:44.522Z,94041.00
2022-09-28T01:11:54.459Z,94040.00
2022-09-28T01:12:04.618Z,94039.00
2022-09-28T01:12:14.619Z,94043.00
2022-09-28T01:12:24.686Z,94046.00
2022-09-28T01:12:34.463Z,94044.00
2022-09-28T01:12:44.660Z,94041.00
2022-09-28T01:12:54.612Z,94039.00
2022-09-28T01:13:04.649Z,94034.00
2022-09-28T01:13:14.663Z,94039.00
2022-09-28T01:13:24.572Z,94042.00
2022-09-28T01:13:34.594Z,94039.00
2022-09-28T01:13:44.663Z,94041.00
2022-09-28T01:13:54.562Z,94039.00
2022-09-28T01:14:04.463Z,94037.00
2022-09-28T01:14:14.667Z,94036.00
2022-09-28T01:14:24.577Z,94035.00
2022-09-28T01:14:34.638Z,94035.00
2022-09-28T01:14:44.534Z,94036.00
2022-09-28T01:14:54.498Z,94039.00
2022-09-28T01:15:04.417Z,94044.00
2022-09-28T01:15:14.735Z,94037.00
2022-09-28T01:15:24.612Z,94038.00
2022-09-28T01:15:34.542Z,94045.00
2022-09-28T01:15:44.617Z,94038.00
2022-09-28T01:15:54.565Z,94036.00
2022-09-28T01:16:04.543Z,94034.00
2022-09-28T01:16:14.733Z,94035.00
2022-09-28T01:16:24.535Z,94043.00
2022-09-28T01:16:34.481Z,94035.00
2022-09-28T01:16:44.691Z,94032.00
2022-09-28T01:16:54.573Z,94033.00
2022-09-28T01:17:04.489Z,94037.00
2022-09-28T01:17:14.413Z,94039.00
2022-09-28T01:17:24.519Z,94037.00
2022-09-28T01:17:34.690Z,94032.00
2022-09-28T01:17:44.713Z,94037.00
2022-09-28T01:17:54.447Z,94040.00
2022-09-28T01:18:04.682Z,94036.00
2022-09-28T01:18:14.530Z,94028.00
2022-09-28T01:18:24.450Z,94037.00
2022-09-28T01:18:34.604Z,94036.00
2022-09-28T01:18:44.660Z,94034.00
2022-09-28T01:18:54.565Z,94036.00
2022-09-28T01:19:04.620Z,94035.00
2022-09-28T01:19:14.532Z,94034.00
2022-09-28T01:19:24.644Z,94034.00
2022-09-28T01:19:34.455Z,94032.00
2022-09-28T01:19:44.549Z,94035.00
2022-09-28T01:19:54.609Z,94032.00
2022-09-28T01:20:04.644Z,94027.00
2022-09-28T01:20:14.441Z,94025.00
2022-09-28T01:20:24.513Z,94030.00
2022-09-28T01:20:34.734Z,94029.00
2022-09-28T01:20:44.678Z,94023.00
2022-09-28T01:20:54.545Z,94028.00
2022-09-28T01:21:04.487Z,94031.00
2022-09-28T01:21:14.654Z,94023.00
2022-09-28T01:21:24.552Z,94022.00
2022-09-28T01:21:34.569Z,94022.00
2022-09-28T01:21:44.686Z,94029.00
2022-09-28T01:21:54.679Z,94024.00
2022-09-28T01:22:04.470Z,94023.00
2022-09-28T01:22:14.616Z,94026.00
2022-09-28T01:22:24.670Z,94018.00
2022-09-28T01:22:34.505Z,94016.00
2022-09-28T01:22:44.505Z,94015.00
2022-09-28T01:22:54.592Z,94015.00
2022-09-28T01:23:04.429Z,94012.00
2022-09-28T01:23:14.721Z,94019.00
2022-09-28T01:23:24.529Z,94011.00
2022-09-28T01:23:34.670Z,94013.00
2022-09-28T01:23:44.682Z,94012.00
2022-09-28T01:23:54.409Z,94012.00
2022-09-28T01:24:04.583Z,94012.00
2022-09-28T01:24:14.599Z,94008.00
2022-09-28T01:24:24.434Z,94008.00
2022-09-28T01:24:34.422Z,94006.00
2022-09-28T01:24:44.779Z,94004.00
2022-09-28T01:24:54.538Z,94003.00
2022-09-28T01:25:04.689Z,94003.00
2022-09-28T01:25:14.635Z,94005.00
2022-09-28T01:25:24.637Z,94001.00
2022-09-28T01:25:34.499Z,94007.00
2022-09-28T01:25:44.663Z,94006.00
2022-09-28T01:25:54.707Z,94002.00
2022-09-28T01:26:04.558Z,93998.00
2022-09-28T01:26:14.457Z,93999.00
2022-09-28T01:26:24.513Z,94000.00
2022-09-28T01:26:34.686Z,94001.00
2022-09-28T01:26:44.610Z,93996.00
2022-09-28T01:26:54.548Z,94000.00
2022-09-28T01:27:04.446Z,93998.00
2022-09-28T01:27:14.627Z,94002.00
2022-09-28T01:27:24.565Z,94000.00
2022-09-28T01:27:34.559Z,94003.00
2022-09-28T01:27:44.615Z,94000.00
2022-09-28T01:27:54.684Z,94003.00
2022-09-28T01:28:04.546Z,94001.00
2022-09-28T01:28:14.585Z,94001.00
2022-09-28T01:28:24.474Z,93999.00
2022-09-28T01:28:34.444Z,93999.00
2022-09-28T01:28:44.718Z,94000.00
2022-09-28T01:28:54.689Z,94001.00
2022-09-28T01:29:04.538Z,93997.00
2022-09-28T01:29:14.723Z,93995.00
2022-09-28T01:29:24.612Z,93998.00
2022-09-28T01:29:34.586Z,93999.00
2022-09-28T01:29:44.411Z,93998.00
2022-09-28T01:29:54.620Z,94000.00
2022-09-28T01:30:04.634Z,94000.00
2022-09-28T01:30:14.591Z,94002.00
2022-09-28T01:30:24.687Z,94002.00
2022-09-28T01:30:34.517Z,94003.00
2022-09-28T01:30:44.457Z,94004.00
2022-09-28T01:30:54.636Z,94001.00
2022-09-28T01:31:04.606Z,94005.00
2022-09-28T01:31:14.643Z,94004.00
2022-09-28T01:31:24.730Z,94006.00
2022-09-28T01:31:34.559Z,94008.00
2022-09-28T01:31:44.688Z,94007.00
2022-09-28T01:31:54.557Z,94005.00
2022-09-28T01:32:04.612Z,94002.00
2022-09-28T01:32:14.611Z,94000.00
2022-09-28T01:32:24.594Z,94003.00
2022-09-28T01:32:34.581Z,93997.00
2022-09-28T01:32:44.433Z,94000.00
2022-09-28T01:32:54.654Z,94004.00
2022-09-28T01:33:04.669Z,94003.00
2022-09-28T01:33:14.740Z,94001.00
2022-09-28T01:33:24.403Z,94003.00
2022-09-28T01:33:34.439Z,94002.00
2022-09-28T01:33:44.476Z,94001.00
2022-09-28T01:33:54.562Z,93999.00
2022-09-28T01:34:04.497Z,93998.00
2022-09-28T01:34:14.674Z,94003.00
2022-09-28T01:34:24.454Z,94001.00
2022-09-28T01:34:34.704Z,94000.00
2022-09-28T01:34:44.629Z,94002.00
2022-09-28T01:34:54.527Z,94002.00
2022-09-28T01:35:04.620Z,93999.00
2022-09-28T01:35:14.607Z,93999.00
2022-09-28T01:35:24.495Z,94000.00
2022-09-28T01:35:34.542Z,93998.00
2022-09-28T01:35:44.607Z,94000.00
2022-09-28T01:35:54.641Z,93999.00
2022-09-28T01:36:04.526Z,93998.00
2022-09-28T01:36:14.678Z,93996.00
2022-09-28T01:36:24.650Z,93996.00
2022-09-28T01:36:34.603Z,93995.00
2022-09-28T01:36:44.475Z,93993.00
2022-09-28T01:36:54.660Z,93992.00
2022-09-28T01:37:04.509Z,93995.00
2022-09-28T01:37:14.448Z,93989.00
2022-09-28T01:37:24.487Z,93988.00
2022-09-28T01:37:34.508Z,93993.00
2022-09-28T01:37:44.573Z,93994.00
2022-09-28T01:37:54.684Z,93992.00
2022-09-28T01:38:04.435Z,93990.00
2022-09-28T01:38:14.411Z,93995.00
2022-09-28T01:38:24.563Z,93987.00
2022-09-28T01:38:34.621Z,93994.00
2022-09-28T01:38:44.553Z,93990.00
2022-09-28T01:38:54.488Z,93988.00
2022-09-28T01:39:04.417Z,93990.00
2022-09-28T01:39:14.792Z,93986.00
2022-09-28T01:39:24.577Z,93983.00
2022-09-28T01:39:34.507Z,93985.00
2022-09-28T01:39:44.516Z,93986.00
2022-09-28T01:39:54.619Z,93989.00
2022-09-28T01:40:04.470Z,93986.00
2022-09-28T01:40:14.617Z,93985.00
2022-09-28T01:40:24.634Z,93985.00
2022-09-28T01:40:34.491Z,93981.00
2022-09-28T01:40:44.676Z,93977.00
2022-09-28T01:40:54.619Z,93983.00
2022-09-28T01:41:04.642Z,93981.00
2022-09-28T01:41:14.637Z,93980.00
2022-09-28T01:41:24.614Z,93980.00
2022-09-28T01:41:34.702Z,93979.00
2022-09-28T01:41:44.509Z,93977.00
2022-09-28T01:41:54.555Z,93981.00
2022-09-28T01:42:04.554Z,93979.00
2022-09-28T01:42:14.412Z,93980.00
2022-09-28T01:42:24.676Z,93979.00
2022-09-28T01:42:34.419Z,93973.00
2022-09-28T01:42:44.483Z,93976.00
2022-09-28T01:42:54.586Z,93978.00
2022-09-28T01:43:04.585Z,93976.00
2022-09-28T01:43:14.611Z,93976.00
2022-09-28T01:43:24.474Z,93974.00
2022-09-28T01:43:34.562Z,93977.00
2022-09-28T01:43:44.660Z,93976.00
2022-09-28T01:43:54.429Z,93972.00
2022-09-28T01:44:04.417Z,93976.00
2022-09-28T01:44:14.640Z,93977.00
2022-09-28T01:44:24.479Z,93977.00
2022-09-28T01:44:34.541Z,93974.00
2022-09-28T01:44:44.541Z,93977.00
2022-09-28T01:44:54.515Z,93973.00
2022-09-28T01:45:04.464Z,93974.00
2022-09-28T01:45:14.659Z,93974.00
2022-09-28T01:45:24.571Z,93973.00
2022-09-28T01:45:34.511Z,93969.00
2022-09-28T01:45:44.678Z,93974.00
2022-09-28T01:45:54.644Z,93975.00
2022-09-28T01:46:04.606Z,93976.00
2022-09-28T01:46:14.634Z,93977.00
2022-09-28T01:46:24.492Z,93973.00
2022-09-28T01:46:34.508Z,93977.00
2022-09-28T01:46:44.671Z,93973.00
2022-09-28T01:46:54.516Z,93975.00
2022-09-28T01:47:04.554Z,93974.00
2022-09-28T01:47:14.527Z,93977.00
2022-09-28T01:47:24.634Z,93971.00
2022-09-28T01:47:34.524Z,93967.00
2022-09-28T01:47:44.510Z,93973.00
2022-09-28T01:47:54.668Z,93970.00
2022-09-28T01:48:04.629Z,93968.00
2022-09-28T01:48:14.588Z,93969.00
2022-09-28T01:48:24.564Z,93965.00
2022-09-28T01:48:34.719Z,93970.00
2022-09-28T01:48:44.484Z,93969.00
2022-09-28T01:48:54.554Z,93970.00
2022-09-28T01:49:04.571Z,93966.00
2022-09-28T01:49:14.618Z,93970.00
2022-09-28T01:49:24.492Z,93969.00
2022-09-28T01:49:34.430Z,93968.00
2022-09-28T01:49:44.652Z,93967.00
2022-09-28T01:49:54.473Z,93966.00
2022-09-28T01:50:04.671Z,93967.00
2022-09-28T01:50:14.538Z,93968.00
2022-09-28T01:50:27.059Z,93971.00
2022-09-28T01:50:34.467Z,93967.00
2022-09-28T01:50:44.478Z,93964.00
2022-09-28T01:50:54.553Z,93965.00
2022-09-28T01:51:04.696Z,93967.00
2022-09-28T01:51:14.714Z,93965.00
2022-09-28T01:51:24.474Z,93964.00
2022-09-28T01:51:34.630Z,93964.00
2022-09-28T01:51:44.617Z,93962.00
2022-09-28T01:51:54.538Z,93965.00
2022-09-28T01:52:04.700Z,93961.00
2022-09-28T01:52:14.654Z,93963.00
2022-09-28T01:52:24.497Z,93960.00
2022-09-28T01:52:34.731Z,93963.00
2022-09-28T01:52:44.484Z,93967.00
2022-09-28T01:52:54.615Z,93960.00
2022-09-28T01:53:04.463Z,93959.00
2022-09-28T01:53:14.687Z,93961.00
2022-09-28T01:53:24.466Z,93957.00
2022-09-28T01:53:34.501Z,93953.00
2022-09-28T01:53:44.706Z,93956.00
2022-09-28T01:53:54.579Z,93961.00
2022-09-28T01:54:04.588Z,93955.00
2022-09-28T01:54:14.639Z,93957.00
2022-09-28T01:54:24.649Z,93957.00
2022-09-28T01:54:34.515Z,93957.00
2022-09-28T01:54:44.609Z,93958.00
2022-09-28T01:54:54.681Z,93957.00
2022-09-28T01:55:04.576Z,93960.00
2022-09-28T01:55:14.629Z,93961.00
2022-09-28T01:55:24.647Z,93958.00
2022-09-28T01:55:34.633Z,93956.00
2022-09-28T01:55:44.668Z,93953.00
2022-09-28T01:55:54.464Z,93958.00
2022-09-28T01:56:04.526Z,93958.00
2022-09-28T01:56:14.511Z,93958.00
2022-09-28T01:56:24.441Z,93955.00
2022-09-28T01:56:34.624Z,93957.00
2022-09-28T01:56:44.469Z,93955.00
2022-09-28T01:56:54.557Z,93957.00
2022-09-28T01:57:04.678Z,93960.00
2022-09-28T01:57:14.461Z,93959.00
2022-09-28T01:57:24.596Z,93961.00